Alida, MN

9:02 AM CDT on October 02, 2014 (GMT -0500)
Bemidji-Beltrami County | Change Station
CLOSE
Current Station
Airport
Location: Bemidji,
Elevation: 1378 ft
Nearby Weather Stations

Elev 1378 ft 47.51 °N, 94.93 °W | Updated -712 second ago

Mostly Cloudy
Mostly Cloudy
54 °F
Feels Like 54 °F
N
14
Wind Variable Wind from SSE
Gusts 20 mph

Today
High -- | Low -- °F
--% Chance of Precip.
Yesterday
High -- | Low -- °F
Precip. -- in
7:21 AM 6:58 PM
First Quarter, 59% visible
Pressure 29.71 in
Visibility 10.0 miles
Clouds Overcast 600 ft
Dew Point 51 °F
Humidity 91%
Rainfall 0.00 in
Snow Depth Not available.
UV 0 out of 12
Pollen 1.70 out of 12
Air Quality Not available.
Flu Activity Not available.
METAR KBJI 011414Z AUTO 15012G17KT 10SM OVC006 12/11 A2971 RMK AO2 T01200105

More Conditions Fewer Conditions

Pressure 29.71 in
Visibility 10.0 miles
Clouds Overcast 600 ft
Dew Point 51 °F
Humidity 91%
Rainfall 0.00 in
Snow Depth Not available.
UV 0 out of 12
Pollen 1.70 out of 12
Air Quality Not available.
Flu Activity Not available.
METAR KBJI 011414Z AUTO 15012G17KT 10SM OVC006 12/11 A2971 RMK AO2 T01200105

More Conditions Fewer Conditions

10-Day Weather Forecast

Almanac

Astronomy

Oct. 02, 2014 Rise Set
Actual Time 7:21 AM CDT 6:58 PM CDT
Civil Twilight 6:50 AM CDT 7:28 PM CDT
Nautical Twilight 6:15 AM CDT 8:04 PM CDT
Astronomical Twilight 5:38 AM CDT 8:40 PM CDT
Moon 3:26 PM CDT 12:16 AM CDT
Length of Visible Light 12h 38m
Length of Day
11h 37m
Tomorrow will be 3m 22s shorter.
First Quarter, 59% of the Moon is Illuminated
Today
First Quarter
Oct 8
Full
Oct 15
Last Quarter
Oct 23
New
Oct 30
First Quarter

Today's Extremes

State Highs State Lows

Community

WunderPhotos

Upload Photos

1,758,247 photos uploaded!

WunderBlogs® & News

Nearby

Snow Depth

Station Depth Elevation
No new snow has been reported.

Earthquake Activity

City Distance Mag. Time & Date
No recent earthquake activity has been reported nearby.
Minimum magnitude displayed is 2.5.

Coastal Water Temperatures

Place Temperature
No Stations Reporting

Nearby Weather Stations